Saint Leonards, United Kingdom
Current Conditions -  °F | °C
As of 10:50 AM on Saturday 22 Nov 2014 (Local Time) from EGHH Reporting Station
Broken Clouds Broken Clouds  
Wind Chill: 57°   Ceiling: 400
Heat Index: 57°   Visibility: 4mi
Dew Point: 57°   Wind: 9mph
Humidity: 100%   Direction: 200°SSW
Pressure: 29.88"   Gusts: NA
Location:  50.83°N, 1.85°W
Report Text: EGHH 221050Z 20008KT 6000 BKN004 14/14 Q1012
Loading
Personal Weather Stations






























Interactive Weather Map New forecast layout! Learn more

10-Day Weather Forecast

Advertisements
Track Severe Weather on mobile